sensor_id;sensor_type;location;lat;lon;timestamp;temperature;humidity
5461;DHT22;2753;49.196;8.286;2024-02-26T00:01:38;8.80;95.20
5461;DHT22;2753;49.196;8.286;2024-02-26T00:04:04;8.80;95.20
5461;DHT22;2753;49.196;8.286;2024-02-26T00:06:31;8.80;95.20
5461;DHT22;2753;49.196;8.286;2024-02-26T00:08:57;8.80;95.30
5461;DHT22;2753;49.196;8.286;2024-02-26T00:11:23;8.80;95.50
5461;DHT22;2753;49.196;8.286;2024-02-26T00:13:49;8.80;95.50
5461;DHT22;2753;49.196;8.286;2024-02-26T00:16:15;8.80;95.50
5461;DHT22;2753;49.196;8.286;2024-02-26T00:18:40;8.80;95.50
5461;DHT22;2753;49.196;8.286;2024-02-26T00:21:06;8.80;95.50
5461;DHT22;2753;49.196;8.286;2024-02-26T00:23:32;8.80;95.40
5461;DHT22;2753;49.196;8.286;2024-02-26T00:25:58;8.80;95.50
5461;DHT22;2753;49.196;8.286;2024-02-26T00:28:24;8.80;95.70
5461;DHT22;2753;49.196;8.286;2024-02-26T00:30:55;8.80;95.70
5461;DHT22;2753;49.196;8.286;2024-02-26T00:33:22;8.80;95.70
5461;DHT22;2753;49.196;8.286;2024-02-26T00:35:51;8.80;95.60
5461;DHT22;2753;49.196;8.286;2024-02-26T00:38:16;8.70;95.60
5461;DHT22;2753;49.196;8.286;2024-02-26T00:40:42;8.70;95.80
5461;DHT22;2753;49.196;8.286;2024-02-26T00:43:08;8.70;95.70
5461;DHT22;2753;49.196;8.286;2024-02-26T00:45:34;8.70;95.80
5461;DHT22;2753;49.196;8.286;2024-02-26T00:48:00;8.60;95.90
5461;DHT22;2753;49.196;8.286;2024-02-26T00:50:33;8.70;96.00
5461;DHT22;2753;49.196;8.286;2024-02-26T00:53:00;8.60;96.10
5461;DHT22;2753;49.196;8.286;2024-02-26T00:55:25;8.70;96.30
5461;DHT22;2753;49.196;8.286;2024-02-26T00:57:51;8.70;96.30
5461;DHT22;2753;49.196;8.286;2024-02-26T01:00:17;8.60;96.90
5461;DHT22;2753;49.196;8.286;2024-02-26T01:02:43;8.60;96.80
5461;DHT22;2753;49.196;8.286;2024-02-26T01:05:12;8.60;97.50
5461;DHT22;2753;49.196;8.286;2024-02-26T01:07:38;8.60;97.50
5461;DHT22;2753;49.196;8.286;2024-02-26T01:10:05;8.60;97.50
5461;DHT22;2753;49.196;8.286;2024-02-26T01:12:32;8.50;97.50
5461;DHT22;2753;49.196;8.286;2024-02-26T01:14:58;8.60;97.50
5461;DHT22;2753;49.196;8.286;2024-02-26T01:17:24;8.60;97.60
5461;DHT22;2753;49.196;8.286;2024-02-26T01:19:49;8.50;98.40
5461;DHT22;2753;49.196;8.286;2024-02-26T01:22:15;8.60;98.50
5461;DHT22;2753;49.196;8.286;2024-02-26T01:24:41;8.60;98.20
5461;DHT22;2753;49.196;8.286;2024-02-26T01:27:07;8.60;98.00
5461;DHT22;2753;49.196;8.286;2024-02-26T01:29:34;8.50;98.50
5461;DHT22;2753;49.196;8.286;2024-02-26T01:32:00;8.50;98.60
5461;DHT22;2753;49.196;8.286;2024-02-26T01:34:25;8.50;99.40
5461;DHT22;2753;49.196;8.286;2024-02-26T01:36:51;8.40;99.90
5461;DHT22;2753;49.196;8.286;2024-02-26T01:39:17;8.40;99.60
5461;DHT22;2753;49.196;8.286;2024-02-26T01:41:43;8.40;99.50
5461;DHT22;2753;49.196;8.286;2024-02-26T01:44:12;8.40;99.60
5461;DHT22;2753;49.196;8.286;2024-02-26T01:46:39;8.40;99.90
5461;DHT22;2753;49.196;8.286;2024-02-26T01:49:05;8.40;99.70
5461;DHT22;2753;49.196;8.286;2024-02-26T01:51:32;8.40;99.80
5461;DHT22;2753;49.196;8.286;2024-02-26T01:53:59;8.40;99.60
5461;DHT22;2753;49.196;8.286;2024-02-26T01:56:27;8.40;99.70
5461;DHT22;2753;49.196;8.286;2024-02-26T01:58:56;8.40;99.60
5461;DHT22;2753;49.196;8.286;2024-02-26T02:01:23;8.40;99.50
5461;DHT22;2753;49.196;8.286;2024-02-26T02:03:51;8.50;99.80
5461;DHT22;2753;49.196;8.286;2024-02-26T02:06:17;8.50;99.90
5461;DHT22;2753;49.196;8.286;2024-02-26T02:08:43;8.50;99.90
5461;DHT22;2753;49.196;8.286;2024-02-26T02:11:09;8.40;99.90
5461;DHT22;2753;49.196;8.286;2024-02-26T02:13:37;8.40;99.90
5461;DHT22;2753;49.196;8.286;2024-02-26T02:16:04;8.50;99.90
5461;DHT22;2753;49.196;8.286;2024-02-26T02:18:30;8.40;99.90
5461;DHT22;2753;49.196;8.286;2024-02-26T02:20:55;8.40;99.90
5461;DHT22;2753;49.196;8.286;2024-02-26T02:23:25;8.40;99.90
5461;DHT22;2753;49.196;8.286;2024-02-26T02:25:51;8.40;99.90
5461;DHT22;2753;49.196;8.286;2024-02-26T02:28:17;8.40;99.90
5461;DHT22;2753;49.196;8.286;2024-02-26T02:30:43;8.40;99.90
5461;DHT22;2753;49.196;8.286;2024-02-26T02:33:09;8.40;99.90
5461;DHT22;2753;49.196;8.286;2024-02-26T02:35:35;8.40;99.90
5461;DHT22;2753;49.196;8.286;2024-02-26T02:38:00;8.40;99.90
5461;DHT22;2753;49.196;8.286;2024-02-26T02:40:27;8.40;99.90
5461;DHT22;2753;49.196;8.286;2024-02-26T02:42:53;8.30;99.90
5461;DHT22;2753;49.196;8.286;2024-02-26T02:45:18;8.30;99.90
5461;DHT22;2753;49.196;8.286;2024-02-26T02:47:44;8.30;99.90
5461;DHT22;2753;49.196;8.286;2024-02-26T02:50:09;8.30;99.90
5461;DHT22;2753;49.196;8.286;2024-02-26T02:52:35;8.30;99.90
5461;DHT22;2753;49.196;8.286;2024-02-26T02:55:01;8.30;99.90
5461;DHT22;2753;49.196;8.286;2024-02-26T02:57:27;8.30;99.90
5461;DHT22;2753;49.196;8.286;2024-02-26T02:59:52;8.80;99.90
5461;DHT22;2753;49.196;8.286;2024-02-26T03:02:18;8.30;99.90
5461;DHT22;2753;49.196;8.286;2024-02-26T03:04:44;8.30;99.90
5461;DHT22;2753;49.196;8.286;2024-02-26T03:07:09;8.30;99.90
5461;DHT22;2753;49.196;8.286;2024-02-26T03:09:35;8.30;99.90
5461;DHT22;2753;49.196;8.286;2024-02-26T03:12:01;8.20;99.90
5461;DHT22;2753;49.196;8.286;2024-02-26T03:14:26;8.20;99.90
5461;DHT22;2753;49.196;8.286;2024-02-26T03:16:55;8.20;99.90
5461;DHT22;2753;49.196;8.286;2024-02-26T03:19:21;8.20;99.90
5461;DHT22;2753;49.196;8.286;2024-02-26T03:21:47;8.20;99.90
5461;DHT22;2753;49.196;8.286;2024-02-26T03:24:13;8.20;99.90
5461;DHT22;2753;49.196;8.286;2024-02-26T03:26:38;8.20;99.90
5461;DHT22;2753;49.196;8.286;2024-02-26T03:29:05;8.20;99.90
5461;DHT22;2753;49.196;8.286;2024-02-26T03:31:31;8.20;99.90
5461;DHT22;2753;49.196;8.286;2024-02-26T03:33:57;8.20;99.90
5461;DHT22;2753;49.196;8.286;2024-02-26T03:36:23;8.20;99.90
5461;DHT22;2753;49.196;8.286;2024-02-26T03:38:48;8.30;99.90
5461;DHT22;2753;49.196;8.286;2024-02-26T03:41:14;8.30;99.90
5461;DHT22;2753;49.196;8.286;2024-02-26T03:43:40;8.20;99.90
5461;DHT22;2753;49.196;8.286;2024-02-26T03:46:09;8.20;99.90
5461;DHT22;2753;49.196;8.286;2024-02-26T03:48:36;8.20;99.90
5461;DHT22;2753;49.196;8.286;2024-02-26T03:51:05;8.20;99.90
5461;DHT22;2753;49.196;8.286;2024-02-26T03:53:31;8.20;99.90
5461;DHT22;2753;49.196;8.286;2024-02-26T03:55:57;8.20;99.90
5461;DHT22;2753;49.196;8.286;2024-02-26T03:58:22;8.20;99.90
5461;DHT22;2753;49.196;8.286;2024-02-26T04:00:48;8.10;99.90
5461;DHT22;2753;49.196;8.286;2024-02-26T04:03:14;8.10;99.90
5461;DHT22;2753;49.196;8.286;2024-02-26T04:05:39;8.10;99.90
5461;DHT22;2753;49.196;8.286;2024-02-26T04:08:05;8.10;99.90
5461;DHT22;2753;49.196;8.286;2024-02-26T04:10:33;8.10;99.90
5461;DHT22;2753;49.196;8.286;2024-02-26T04:13:00;8.00;99.90
5461;DHT22;2753;49.196;8.286;2024-02-26T04:15:26;8.00;99.90
5461;DHT22;2753;49.196;8.286;2024-02-26T04:17:52;8.10;99.90
5461;DHT22;2753;49.196;8.286;2024-02-26T04:20:17;8.00;99.90
5461;DHT22;2753;49.196;8.286;2024-02-26T04:22:43;8.00;99.90
5461;DHT22;2753;49.196;8.286;2024-02-26T04:25:09;8.00;99.90
5461;DHT22;2753;49.196;8.286;2024-02-26T04:27:35;8.80;99.90
5461;DHT22;2753;49.196;8.286;2024-02-26T04:30:00;8.00;99.90
5461;DHT22;2753;49.196;8.286;2024-02-26T04:32:26;8.00;99.90
5461;DHT22;2753;49.196;8.286;2024-02-26T04:34:56;7.90;99.90
5461;DHT22;2753;49.196;8.286;2024-02-26T04:37:22;8.00;99.90
5461;DHT22;2753;49.196;8.286;2024-02-26T04:39:47;7.90;99.90
5461;DHT22;2753;49.196;8.286;2024-02-26T04:42:13;8.00;99.90
5461;DHT22;2753;49.196;8.286;2024-02-26T04:44:39;7.90;99.90
5461;DHT22;2753;49.196;8.286;2024-02-26T04:47:05;7.90;99.90
5461;DHT22;2753;49.196;8.286;2024-02-26T04:49:34;7.90;99.90
5461;DHT22;2753;49.196;8.286;2024-02-26T04:51:59;7.90;99.90
5461;DHT22;2753;49.196;8.286;2024-02-26T04:54:25;7.90;99.90
5461;DHT22;2753;49.196;8.286;2024-02-26T04:56:50;7.90;99.90
5461;DHT22;2753;49.196;8.286;2024-02-26T04:59:16;7.90;99.90
5461;DHT22;2753;49.196;8.286;2024-02-26T05:01:42;7.90;99.90
5461;DHT22;2753;49.196;8.286;2024-02-26T05:04:08;7.90;99.90
5461;DHT22;2753;49.196;8.286;2024-02-26T05:06:33;7.90;99.90
5461;DHT22;2753;49.196;8.286;2024-02-26T05:08:59;7.90;99.90
5461;DHT22;2753;49.196;8.286;2024-02-26T05:11:25;7.90;99.90
5461;DHT22;2753;49.196;8.286;2024-02-26T05:13:51;7.90;99.90
5461;DHT22;2753;49.196;8.286;2024-02-26T05:16:16;7.90;99.90
5461;DHT22;2753;49.196;8.286;2024-02-26T05:18:42;7.90;99.90
5461;DHT22;2753;49.196;8.286;2024-02-26T05:21:08;7.90;99.90
5461;DHT22;2753;49.196;8.286;2024-02-26T05:23:33;7.90;99.90
5461;DHT22;2753;49.196;8.286;2024-02-26T05:25:59;7.90;99.90
5461;DHT22;2753;49.196;8.286;2024-02-26T05:28:24;7.90;99.90
5461;DHT22;2753;49.196;8.286;2024-02-26T05:30:50;7.90;99.90
5461;DHT22;2753;49.196;8.286;2024-02-26T05:33:16;7.90;99.90
5461;DHT22;2753;49.196;8.286;2024-02-26T05:35:42;7.90;99.90
5461;DHT22;2753;49.196;8.286;2024-02-26T05:38:07;7.80;99.90
5461;DHT22;2753;49.196;8.286;2024-02-26T05:40:33;7.90;99.90
5461;DHT22;2753;49.196;8.286;2024-02-26T05:42:59;7.90;99.90
5461;DHT22;2753;49.196;8.286;2024-02-26T05:45:24;7.90;99.90
5461;DHT22;2753;49.196;8.286;2024-02-26T05:47:50;7.90;99.90
5461;DHT22;2753;49.196;8.286;2024-02-26T05:50:16;7.90;99.90
5461;DHT22;2753;49.196;8.286;2024-02-26T05:52:42;7.90;99.90
5461;DHT22;2753;49.196;8.286;2024-02-26T05:55:08;7.90;99.90
5461;DHT22;2753;49.196;8.286;2024-02-26T05:57:34;7.80;99.90
5461;DHT22;2753;49.196;8.286;2024-02-26T06:00:00;7.80;99.90
5461;DHT22;2753;49.196;8.286;2024-02-26T06:02:32;7.90;99.90
5461;DHT22;2753;49.196;8.286;2024-02-26T06:04:58;7.90;99.90
5461;DHT22;2753;49.196;8.286;2024-02-26T06:07:24;7.90;99.90
5461;DHT22;2753;49.196;8.286;2024-02-26T06:09:50;7.90;99.90
5461;DHT22;2753;49.196;8.286;2024-02-26T06:12:15;7.90;99.90
5461;DHT22;2753;49.196;8.286;2024-02-26T06:14:42;7.90;99.90
5461;DHT22;2753;49.196;8.286;2024-02-26T06:17:08;7.90;99.90
5461;DHT22;2753;49.196;8.286;2024-02-26T06:19:34;7.90;99.90
5461;DHT22;2753;49.196;8.286;2024-02-26T06:21:59;7.90;99.90
5461;DHT22;2753;49.196;8.286;2024-02-26T06:24:25;7.90;99.90
5461;DHT22;2753;49.196;8.286;2024-02-26T06:26:51;7.90;99.90
5461;DHT22;2753;49.196;8.286;2024-02-26T06:29:16;7.90;99.90
5461;DHT22;2753;49.196;8.286;2024-02-26T06:31:42;8.40;99.90
5461;DHT22;2753;49.196;8.286;2024-02-26T06:34:08;7.90;99.90
5461;DHT22;2753;49.196;8.286;2024-02-26T06:36:34;7.90;99.90
5461;DHT22;2753;49.196;8.286;2024-02-26T06:39:00;7.90;99.90
5461;DHT22;2753;49.196;8.286;2024-02-26T06:41:26;7.90;99.90
5461;DHT22;2753;49.196;8.286;2024-02-26T06:43:55;7.90;99.90
5461;DHT22;2753;49.196;8.286;2024-02-26T06:46:22;7.90;99.90
5461;DHT22;2753;49.196;8.286;2024-02-26T06:48:48;7.90;99.90
5461;DHT22;2753;49.196;8.286;2024-02-26T06:51:14;7.90;99.90
5461;DHT22;2753;49.196;8.286;2024-02-26T06:53:40;7.90;99.90
5461;DHT22;2753;49.196;8.286;2024-02-26T06:56:06;7.90;99.90
5461;DHT22;2753;49.196;8.286;2024-02-26T06:58:34;7.90;99.90
5461;DHT22;2753;49.196;8.286;2024-02-26T07:01:00;7.90;99.90
5461;DHT22;2753;49.196;8.286;2024-02-26T07:03:26;7.90;99.90
5461;DHT22;2753;49.196;8.286;2024-02-26T07:05:52;7.90;99.90
5461;DHT22;2753;49.196;8.286;2024-02-26T07:08:18;7.90;99.90
5461;DHT22;2753;49.196;8.286;2024-02-26T07:10:44;7.90;99.90
5461;DHT22;2753;49.196;8.286;2024-02-26T07:13:10;7.90;99.90
5461;DHT22;2753;49.196;8.286;2024-02-26T07:15:35;7.90;99.90
5461;DHT22;2753;49.196;8.286;2024-02-26T07:18:01;7.90;99.90
5461;DHT22;2753;49.196;8.286;2024-02-26T07:20:29;7.90;99.90
5461;DHT22;2753;49.196;8.286;2024-02-26T07:22:56;7.90;99.90
5461;DHT22;2753;49.196;8.286;2024-02-26T07:25:22;7.90;99.90
5461;DHT22;2753;49.196;8.286;2024-02-26T07:27:47;7.90;99.90
5461;DHT22;2753;49.196;8.286;2024-02-26T07:30:13;7.90;99.90
5461;DHT22;2753;49.196;8.286;2024-02-26T07:32:40;7.90;99.90
5461;DHT22;2753;49.196;8.286;2024-02-26T07:35:05;7.90;99.90
5461;DHT22;2753;49.196;8.286;2024-02-26T07:37:31;7.90;99.90
5461;DHT22;2753;49.196;8.286;2024-02-26T07:39:57;7.90;99.90
5461;DHT22;2753;49.196;8.286;2024-02-26T07:42:23;7.90;99.90
5461;DHT22;2753;49.196;8.286;2024-02-26T07:44:48;7.90;99.90
5461;DHT22;2753;49.196;8.286;2024-02-26T07:47:14;7.90;99.90
5461;DHT22;2753;49.196;8.286;2024-02-26T07:49:40;7.90;99.90
5461;DHT22;2753;49.196;8.286;2024-02-26T07:52:06;7.90;99.90
5461;DHT22;2753;49.196;8.286;2024-02-26T07:54:32;7.90;99.90
5461;DHT22;2753;49.196;8.286;2024-02-26T07:56:59;8.00;99.90
5461;DHT22;2753;49.196;8.286;2024-02-26T07:59:25;8.00;99.90
5461;DHT22;2753;49.196;8.286;2024-02-26T08:01:58;8.00;99.90
5461;DHT22;2753;49.196;8.286;2024-02-26T08:04:32;8.00;99.90
5461;DHT22;2753;49.196;8.286;2024-02-26T08:07:12;8.10;99.90
5461;DHT22;2753;49.196;8.286;2024-02-26T08:09:45;8.10;99.90
5461;DHT22;2753;49.196;8.286;2024-02-26T08:12:20;8.10;99.90
5461;DHT22;2753;49.196;8.286;2024-02-26T08:15:04;8.10;99.90
5461;DHT22;2753;49.196;8.286;2024-02-26T08:17:39;8.20;99.90
5461;DHT22;2753;49.196;8.286;2024-02-26T08:20:10;8.20;99.90
5461;DHT22;2753;49.196;8.286;2024-02-26T08:22:38;8.20;99.90
5461;DHT22;2753;49.196;8.286;2024-02-26T08:25:06;8.20;99.90
5461;DHT22;2753;49.196;8.286;2024-02-26T08:27:36;8.30;99.90
5461;DHT22;2753;49.196;8.286;2024-02-26T08:30:06;8.30;99.90
5461;DHT22;2753;49.196;8.286;2024-02-26T08:32:34;8.30;99.90
5461;DHT22;2753;49.196;8.286;2024-02-26T08:35:20;8.30;99.90
5461;DHT22;2753;49.196;8.286;2024-02-26T08:37:48;8.30;99.90
5461;DHT22;2753;49.196;8.286;2024-02-26T08:40:21;8.30;99.90
5461;DHT22;2753;49.196;8.286;2024-02-26T08:42:54;8.30;99.90
5461;DHT22;2753;49.196;8.286;2024-02-26T08:45:24;8.40;99.90
5461;DHT22;2753;49.196;8.286;2024-02-26T08:48:14;8.40;99.90
5461;DHT22;2753;49.196;8.286;2024-02-26T08:50:48;8.30;99.90
5461;DHT22;2753;49.196;8.286;2024-02-26T08:53:31;8.40;99.90
5461;DHT22;2753;49.196;8.286;2024-02-26T08:56:32;8.40;99.90
5461;DHT22;2753;49.196;8.286;2024-02-26T08:59:36;8.40;99.90
5461;DHT22;2753;49.196;8.286;2024-02-26T09:02:12;8.40;99.90
5461;DHT22;2753;49.196;8.286;2024-02-26T09:04:47;8.50;99.90
5461;DHT22;2753;49.196;8.286;2024-02-26T09:07:17;8.50;99.90
5461;DHT22;2753;49.196;8.286;2024-02-26T09:09:54;8.50;99.90
5461;DHT22;2753;49.196;8.286;2024-02-26T09:12:22;8.50;99.90
5461;DHT22;2753;49.196;8.286;2024-02-26T09:14:48;8.50;99.90
5461;DHT22;2753;49.196;8.286;2024-02-26T09:17:13;8.50;99.90
5461;DHT22;2753;49.196;8.286;2024-02-26T09:19:39;8.60;99.90
5461;DHT22;2753;49.196;8.286;2024-02-26T09:22:05;8.60;99.90
5461;DHT22;2753;49.196;8.286;2024-02-26T09:24:31;8.60;99.90
5461;DHT22;2753;49.196;8.286;2024-02-26T09:26:57;8.70;99.90
5461;DHT22;2753;49.196;8.286;2024-02-26T09:29:24;8.70;99.90
5461;DHT22;2753;49.196;8.286;2024-02-26T09:31:52;8.70;99.90
5461;DHT22;2753;49.196;8.286;2024-02-26T09:34:19;8.80;99.90
5461;DHT22;2753;49.196;8.286;2024-02-26T09:36:48;8.80;99.90
5461;DHT22;2753;49.196;8.286;2024-02-26T09:39:16;8.80;99.90
5461;DHT22;2753;49.196;8.286;2024-02-26T09:41:48;8.90;99.90
5461;DHT22;2753;49.196;8.286;2024-02-26T09:44:22;8.90;99.90
5461;DHT22;2753;49.196;8.286;2024-02-26T09:46:52;8.90;99.90
5461;DHT22;2753;49.196;8.286;2024-02-26T09:49:23;9.00;99.90
5461;DHT22;2753;49.196;8.286;2024-02-26T09:51:59;9.00;99.90
5461;DHT22;2753;49.196;8.286;2024-02-26T09:54:31;9.10;99.90
5461;DHT22;2753;49.196;8.286;2024-02-26T09:57:05;9.10;99.90
5461;DHT22;2753;49.196;8.286;2024-02-26T09:59:42;9.10;99.90
5461;DHT22;2753;49.196;8.286;2024-02-26T10:02:17;9.10;99.90
5461;DHT22;2753;49.196;8.286;2024-02-26T10:04:51;9.20;99.90
5461;DHT22;2753;49.196;8.286;2024-02-26T10:07:25;9.20;99.90
5461;DHT22;2753;49.196;8.286;2024-02-26T10:09:59;9.20;99.90
5461;DHT22;2753;49.196;8.286;2024-02-26T10:12:29;9.20;99.90
5461;DHT22;2753;49.196;8.286;2024-02-26T10:15:30;9.30;99.90
5461;DHT22;2753;49.196;8.286;2024-02-26T10:21:46;9.40;99.90
5461;DHT22;2753;49.196;8.286;2024-02-26T10:24:15;9.50;99.90
5461;DHT22;2753;49.196;8.286;2024-02-26T10:26:47;9.60;99.90
5461;DHT22;2753;49.196;8.286;2024-02-26T10:29:15;9.70;99.90
5461;DHT22;2753;49.196;8.286;2024-02-26T10:31:46;9.80;99.90
5461;DHT22;2753;49.196;8.286;2024-02-26T10:34:20;9.90;99.90
5461;DHT22;2753;49.196;8.286;2024-02-26T10:36:49;9.90;99.90
5461;DHT22;2753;49.196;8.286;2024-02-26T10:39:16;10.10;99.90
5461;DHT22;2753;49.196;8.286;2024-02-26T10:41:45;10.10;99.90
5461;DHT22;2753;49.196;8.286;2024-02-26T10:44:13;10.10;99.90
5461;DHT22;2753;49.196;8.286;2024-02-26T10:46:42;10.10;99.90
5461;DHT22;2753;49.196;8.286;2024-02-26T10:49:18;10.10;99.90
5461;DHT22;2753;49.196;8.286;2024-02-26T10:51:56;10.10;99.90
5461;DHT22;2753;49.196;8.286;2024-02-26T10:54:36;10.10;99.90
5461;DHT22;2753;49.196;8.286;2024-02-26T10:57:15;10.10;99.90
5461;DHT22;2753;49.196;8.286;2024-02-26T10:59:51;10.10;99.90
5461;DHT22;2753;49.196;8.286;2024-02-26T11:02:23;10.10;99.90
5461;DHT22;2753;49.196;8.286;2024-02-26T11:04:49;10.10;99.90
5461;DHT22;2753;49.196;8.286;2024-02-26T11:07:16;10.10;99.90
5461;DHT22;2753;49.196;8.286;2024-02-26T11:09:43;10.20;99.90
5461;DHT22;2753;49.196;8.286;2024-02-26T11:12:12;10.20;99.90
5461;DHT22;2753;49.196;8.286;2024-02-26T11:14:40;10.30;99.90
5461;DHT22;2753;49.196;8.286;2024-02-26T11:17:07;10.40;99.90
5461;DHT22;2753;49.196;8.286;2024-02-26T11:19:35;10.60;99.90
5461;DHT22;2753;49.196;8.286;2024-02-26T11:22:02;10.60;99.90
5461;DHT22;2753;49.196;8.286;2024-02-26T11:24:28;10.70;99.90
5461;DHT22;2753;49.196;8.286;2024-02-26T11:26:55;10.90;99.90
5461;DHT22;2753;49.196;8.286;2024-02-26T11:29:34;11.00;99.90
5461;DHT22;2753;49.196;8.286;2024-02-26T11:32:01;10.90;99.90
5461;DHT22;2753;49.196;8.286;2024-02-26T11:34:27;11.10;99.90
5461;DHT22;2753;49.196;8.286;2024-02-26T11:36:54;11.40;99.90
5461;DHT22;2753;49.196;8.286;2024-02-26T11:39:19;11.50;99.90
5461;DHT22;2753;49.196;8.286;2024-02-26T11:41:46;11.70;99.90
5461;DHT22;2753;49.196;8.286;2024-02-26T11:44:12;11.70;99.90
5461;DHT22;2753;49.196;8.286;2024-02-26T11:46:42;11.70;99.90
5461;DHT22;2753;49.196;8.286;2024-02-26T11:49:32;11.70;99.90
5461;DHT22;2753;49.196;8.286;2024-02-26T11:52:09;11.90;99.90
5461;DHT22;2753;49.196;8.286;2024-02-26T11:54:56;12.10;99.90
5461;DHT22;2753;49.196;8.286;2024-02-26T11:57:38;12.50;99.90
5461;DHT22;2753;49.196;8.286;2024-02-26T12:02:51;13.00;99.90
5461;DHT22;2753;49.196;8.286;2024-02-26T12:05:58;13.00;99.90
5461;DHT22;2753;49.196;8.286;2024-02-26T12:08:24;12.80;99.90
5461;DHT22;2753;49.196;8.286;2024-02-26T12:10:51;12.80;99.90
5461;DHT22;2753;49.196;8.286;2024-02-26T12:13:29;12.80;99.90
5461;DHT22;2753;49.196;8.286;2024-02-26T12:15:58;12.70;99.90
5461;DHT22;2753;49.196;8.286;2024-02-26T12:18:26;12.70;99.90
5461;DHT22;2753;49.196;8.286;2024-02-26T12:21:07;12.90;99.90
5461;DHT22;2753;49.196;8.286;2024-02-26T12:23:39;13.10;99.90
5461;DHT22;2753;49.196;8.286;2024-02-26T12:26:11;13.30;99.90
5461;DHT22;2753;49.196;8.286;2024-02-26T12:28:41;13.70;99.90
5461;DHT22;2753;49.196;8.286;2024-02-26T12:31:08;13.40;99.90
5461;DHT22;2753;49.196;8.286;2024-02-26T12:33:37;13.50;99.70
5461;DHT22;2753;49.196;8.286;2024-02-26T12:36:05;13.60;99.80
5461;DHT22;2753;49.196;8.286;2024-02-26T12:38:36;13.90;99.90
5461;DHT22;2753;49.196;8.286;2024-02-26T12:41:06;14.10;99.90
5461;DHT22;2753;49.196;8.286;2024-02-26T12:43:41;13.90;99.40
5461;DHT22;2753;49.196;8.286;2024-02-26T12:46:09;14.00;99.90
5461;DHT22;2753;49.196;8.286;2024-02-26T12:48:59;13.80;99.50
5461;DHT22;2753;49.196;8.286;2024-02-26T12:51:30;13.80;99.10
5461;DHT22;2753;49.196;8.286;2024-02-26T12:54:16;13.80;99.50
5461;DHT22;2753;49.196;8.286;2024-02-26T12:56:44;13.70;98.70
5461;DHT22;2753;49.196;8.286;2024-02-26T12:59:17;13.80;99.80
5461;DHT22;2753;49.196;8.286;2024-02-26T13:01:47;13.80;99.20
5461;DHT22;2753;49.196;8.286;2024-02-26T13:04:14;13.50;98.50
5461;DHT22;2753;49.196;8.286;2024-02-26T13:07:03;13.70;99.40
5461;DHT22;2753;49.196;8.286;2024-02-26T13:09:38;13.80;98.70
5461;DHT22;2753;49.196;8.286;2024-02-26T13:12:10;13.90;99.10
5461;DHT22;2753;49.196;8.286;2024-02-26T13:14:42;14.10;98.70
5461;DHT22;2753;49.196;8.286;2024-02-26T13:17:22;14.30;98.60
5461;DHT22;2753;49.196;8.286;2024-02-26T13:20:01;14.10;98.30
5461;DHT22;2753;49.196;8.286;2024-02-26T13:22:34;13.90;97.90
5461;DHT22;2753;49.196;8.286;2024-02-26T13:25:23;13.90;98.50
5461;DHT22;2753;49.196;8.286;2024-02-26T13:27:50;13.90;98.10
5461;DHT22;2753;49.196;8.286;2024-02-26T13:30:17;13.90;98.40
5461;DHT22;2753;49.196;8.286;2024-02-26T13:32:45;14.00;98.50
5461;DHT22;2753;49.196;8.286;2024-02-26T13:35:13;13.80;98.10
5461;DHT22;2753;49.196;8.286;2024-02-26T13:37:40;13.80;98.20
5461;DHT22;2753;49.196;8.286;2024-02-26T13:40:10;13.70;98.40
5461;DHT22;2753;49.196;8.286;2024-02-26T13:42:39;13.70;98.10
5461;DHT22;2753;49.196;8.286;2024-02-26T13:45:11;13.80;98.40
5461;DHT22;2753;49.196;8.286;2024-02-26T13:47:37;13.80;98.30
5461;DHT22;2753;49.196;8.286;2024-02-26T13:50:09;13.70;97.60
5461;DHT22;2753;49.196;8.286;2024-02-26T13:52:42;13.70;97.90
5461;DHT22;2753;49.196;8.286;2024-02-26T13:55:08;13.70;98.00
5461;DHT22;2753;49.196;8.286;2024-02-26T13:57:34;13.80;98.00
5461;DHT22;2753;49.196;8.286;2024-02-26T14:00:00;13.80;97.70
5461;DHT22;2753;49.196;8.286;2024-02-26T14:02:26;13.80;97.50
5461;DHT22;2753;49.196;8.286;2024-02-26T14:04:52;14.20;98.20
5461;DHT22;2753;49.196;8.286;2024-02-26T14:07:17;14.30;96.90
5461;DHT22;2753;49.196;8.286;2024-02-26T14:09:43;14.60;97.10
5461;DHT22;2753;49.196;8.286;2024-02-26T14:12:11;14.60;97.30
5461;DHT22;2753;49.196;8.286;2024-02-26T14:14:36;14.30;97.10
5461;DHT22;2753;49.196;8.286;2024-02-26T14:17:04;14.40;97.30
5461;DHT22;2753;49.196;8.286;2024-02-26T14:19:31;14.60;97.20
5461;DHT22;2753;49.196;8.286;2024-02-26T14:21:56;14.60;97.30
5461;DHT22;2753;49.196;8.286;2024-02-26T14:24:22;14.60;96.70
5461;DHT22;2753;49.196;8.286;2024-02-26T14:26:48;14.80;97.00
5461;DHT22;2753;49.196;8.286;2024-02-26T14:29:14;14.90;96.50
5461;DHT22;2753;49.196;8.286;2024-02-26T14:31:40;15.00;96.30
5461;DHT22;2753;49.196;8.286;2024-02-26T14:34:05;14.90;96.10
5461;DHT22;2753;49.196;8.286;2024-02-26T14:36:31;15.10;96.20
5461;DHT22;2753;49.196;8.286;2024-02-26T14:39:00;15.00;95.80
5461;DHT22;2753;49.196;8.286;2024-02-26T14:41:25;15.20;95.90
5461;DHT22;2753;49.196;8.286;2024-02-26T14:43:51;15.10;95.60
5461;DHT22;2753;49.196;8.286;2024-02-26T14:46:16;15.00;95.70
5461;DHT22;2753;49.196;8.286;2024-02-26T14:48:42;14.90;95.90
5461;DHT22;2753;49.196;8.286;2024-02-26T14:51:08;14.90;96.40
5461;DHT22;2753;49.196;8.286;2024-02-26T14:53:34;14.80;96.20
5461;DHT22;2753;49.196;8.286;2024-02-26T14:56:00;14.80;96.90
5461;DHT22;2753;49.196;8.286;2024-02-26T14:58:26;14.80;96.40
5461;DHT22;2753;49.196;8.286;2024-02-26T15:00:51;14.80;96.70
5461;DHT22;2753;49.196;8.286;2024-02-26T15:03:17;14.60;96.60
5461;DHT22;2753;49.196;8.286;2024-02-26T15:05:43;14.60;96.70
5461;DHT22;2753;49.196;8.286;2024-02-26T15:08:09;14.60;96.70
5461;DHT22;2753;49.196;8.286;2024-02-26T15:10:35;14.50;96.90
5461;DHT22;2753;49.196;8.286;2024-02-26T15:13:01;14.20;96.20
5461;DHT22;2753;49.196;8.286;2024-02-26T15:15:27;14.20;96.50
5461;DHT22;2753;49.196;8.286;2024-02-26T15:17:53;14.40;96.20
5461;DHT22;2753;49.196;8.286;2024-02-26T15:20:18;14.60;96.00
5461;DHT22;2753;49.196;8.286;2024-02-26T15:22:44;14.70;95.60
5461;DHT22;2753;49.196;8.286;2024-02-26T15:25:10;14.80;95.10
5461;DHT22;2753;49.196;8.286;2024-02-26T15:27:36;14.80;95.00
5461;DHT22;2753;49.196;8.286;2024-02-26T15:30:02;15.00;94.60
5461;DHT22;2753;49.196;8.286;2024-02-26T15:32:28;14.90;94.30
5461;DHT22;2753;49.196;8.286;2024-02-26T15:34:54;15.10;94.50
5461;DHT22;2753;49.196;8.286;2024-02-26T15:37:26;14.90;94.20
5461;DHT22;2753;49.196;8.286;2024-02-26T15:39:52;14.80;94.20
5461;DHT22;2753;49.196;8.286;2024-02-26T15:42:17;15.00;94.20
5461;DHT22;2753;49.196;8.286;2024-02-26T15:44:43;14.70;94.20
5461;DHT22;2753;49.196;8.286;2024-02-26T15:47:09;14.80;94.60
5461;DHT22;2753;49.196;8.286;2024-02-26T15:49:34;14.80;94.30
5461;DHT22;2753;49.196;8.286;2024-02-26T15:52:00;14.60;94.10
5461;DHT22;2753;49.196;8.286;2024-02-26T15:54:26;14.80;94.70
5461;DHT22;2753;49.196;8.286;2024-02-26T15:56:52;14.60;94.20
5461;DHT22;2753;49.196;8.286;2024-02-26T15:59:19;14.60;94.50
5461;DHT22;2753;49.196;8.286;2024-02-26T16:01:45;14.50;94.80
5461;DHT22;2753;49.196;8.286;2024-02-26T16:04:11;14.40;94.70
5461;DHT22;2753;49.196;8.286;2024-02-26T16:06:50;14.60;95.00
5461;DHT22;2753;49.196;8.286;2024-02-26T16:09:16;14.50;94.70
5461;DHT22;2753;49.196;8.286;2024-02-26T16:11:42;14.50;94.90
5461;DHT22;2753;49.196;8.286;2024-02-26T16:17:15;14.10;94.80
5461;DHT22;2753;49.196;8.286;2024-02-26T16:19:42;14.20;95.00
5461;DHT22;2753;49.196;8.286;2024-02-26T16:22:08;14.10;95.00
5461;DHT22;2753;49.196;8.286;2024-02-26T16:24:34;14.20;95.40
5461;DHT22;2753;49.196;8.286;2024-02-26T16:26:59;14.20;95.30
5461;DHT22;2753;49.196;8.286;2024-02-26T16:29:28;14.20;95.40